sensor_id;sensor_type;location;lat;lon;timestamp;P1;durP1;ratioP1;P2;durP2;ratioP2
70967;SDS011;58629;48.808;8.820;2023-09-19T00:00:29;1.50;;;0.70;;
70967;SDS011;58629;48.808;8.820;2023-09-19T00:02:57;0.95;;;0.50;;
70967;SDS011;58629;48.808;8.820;2023-09-19T00:05:29;0.82;;;0.40;;
70967;SDS011;58629;48.808;8.820;2023-09-19T00:08:00;0.90;;;0.50;;
70967;SDS011;58629;48.808;8.820;2023-09-19T00:10:26;0.70;;;0.50;;
70967;SDS011;58629;48.808;8.820;2023-09-19T00:12:56;0.75;;;0.55;;
70967;SDS011;58629;48.808;8.820;2023-09-19T00:15:23;1.13;;;0.50;;
70967;SDS011;58629;48.808;8.820;2023-09-19T00:17:49;1.00;;;0.50;;
70967;SDS011;58629;48.808;8.820;2023-09-19T00:20:17;0.60;;;0.50;;
70967;SDS011;58629;48.808;8.820;2023-09-19T00:22:43;2.58;;;0.50;;
70967;SDS011;58629;48.808;8.820;2023-09-19T00:25:09;0.52;;;0.40;;
70967;SDS011;58629;48.808;8.820;2023-09-19T00:27:36;1.40;;;0.50;;
70967;SDS011;58629;48.808;8.820;2023-09-19T00:30:05;1.00;;;0.57;;
70967;SDS011;58629;48.808;8.820;2023-09-19T00:32:33;1.08;;;0.47;;
70967;SDS011;58629;48.808;8.820;2023-09-19T00:34:59;2.38;;;0.63;;
70967;SDS011;58629;48.808;8.820;2023-09-19T00:37:25;0.60;;;0.40;;
70967;SDS011;58629;48.808;8.820;2023-09-19T00:39:50;1.23;;;0.50;;
70967;SDS011;58629;48.808;8.820;2023-09-19T00:42:19;1.30;;;0.50;;
70967;SDS011;58629;48.808;8.820;2023-09-19T00:44:46;1.77;;;0.50;;
70967;SDS011;58629;48.808;8.820;2023-09-19T00:47:12;0.82;;;0.50;;
70967;SDS011;58629;48.808;8.820;2023-09-19T00:49:42;0.85;;;0.60;;
70967;SDS011;58629;48.808;8.820;2023-09-19T00:52:15;1.40;;;0.40;;
70967;SDS011;58629;48.808;8.820;2023-09-19T00:54:44;0.93;;;0.50;;
70967;SDS011;58629;48.808;8.820;2023-09-19T00:57:10;0.30;;;0.30;;
70967;SDS011;58629;48.808;8.820;2023-09-19T00:59:36;0.30;;;0.30;;
70967;SDS011;58629;48.808;8.820;2023-09-19T01:02:02;0.60;;;0.40;;
70967;SDS011;58629;48.808;8.820;2023-09-19T01:04:28;0.40;;;0.30;;
70967;SDS011;58629;48.808;8.820;2023-09-19T01:06:54;0.38;;;0.30;;
70967;SDS011;58629;48.808;8.820;2023-09-19T01:09:20;0.57;;;0.30;;
70967;SDS011;58629;48.808;8.820;2023-09-19T01:11:47;0.40;;;0.30;;
70967;SDS011;58629;48.808;8.820;2023-09-19T01:16:56;0.55;;;0.30;;
70967;SDS011;58629;48.808;8.820;2023-09-19T01:22:16;0.68;;;0.50;;
70967;SDS011;58629;48.808;8.820;2023-09-19T01:27:25;0.50;;;0.30;;
70967;SDS011;58629;48.808;8.820;2023-09-19T01:30:14;0.65;;;0.40;;
70967;SDS011;58629;48.808;8.820;2023-09-19T01:32:47;1.33;;;0.60;;
70967;SDS011;58629;48.808;8.820;2023-09-19T01:35:17;1.08;;;0.60;;
70967;SDS011;58629;48.808;8.820;2023-09-19T01:37:43;0.90;;;0.43;;
70967;SDS011;58629;48.808;8.820;2023-09-19T01:40:09;1.50;;;0.40;;
70967;SDS011;58629;48.808;8.820;2023-09-19T01:45:43;0.88;;;0.60;;
70967;SDS011;58629;48.808;8.820;2023-09-19T01:48:19;0.55;;;0.40;;
70967;SDS011;58629;48.808;8.820;2023-09-19T01:51:03;0.40;;;0.30;;
70967;SDS011;58629;48.808;8.820;2023-09-19T01:53:41;0.40;;;0.30;;
70967;SDS011;58629;48.808;8.820;2023-09-19T01:56:18;0.50;;;0.30;;
70967;SDS011;58629;48.808;8.820;2023-09-19T01:58:48;0.52;;;0.47;;
70967;SDS011;58629;48.808;8.820;2023-09-19T02:01:16;0.50;;;0.32;;
70967;SDS011;58629;48.808;8.820;2023-09-19T02:03:45;0.75;;;0.40;;
70967;SDS011;58629;48.808;8.820;2023-09-19T02:06:14;0.70;;;0.40;;
70967;SDS011;58629;48.808;8.820;2023-09-19T02:08:40;0.75;;;0.43;;
70967;SDS011;58629;48.808;8.820;2023-09-19T02:11:06;0.55;;;0.38;;
70967;SDS011;58629;48.808;8.820;2023-09-19T02:13:31;0.60;;;0.40;;
70967;SDS011;58629;48.808;8.820;2023-09-19T02:15:56;0.53;;;0.40;;
70967;SDS011;58629;48.808;8.820;2023-09-19T02:18:22;0.50;;;0.40;;
70967;SDS011;58629;48.808;8.820;2023-09-19T02:20:48;0.70;;;0.40;;
70967;SDS011;58629;48.808;8.820;2023-09-19T02:23:13;0.93;;;0.60;;
70967;SDS011;58629;48.808;8.820;2023-09-19T02:25:40;0.88;;;0.43;;
70967;SDS011;58629;48.808;8.820;2023-09-19T02:28:06;0.70;;;0.40;;
70967;SDS011;58629;48.808;8.820;2023-09-19T02:30:32;1.87;;;0.50;;
70967;SDS011;58629;48.808;8.820;2023-09-19T02:32:57;1.08;;;0.60;;
70967;SDS011;58629;48.808;8.820;2023-09-19T02:35:23;1.87;;;0.70;;
70967;SDS011;58629;48.808;8.820;2023-09-19T02:37:48;1.40;;;0.63;;
70967;SDS011;58629;48.808;8.820;2023-09-19T02:40:14;0.68;;;0.50;;
70967;SDS011;58629;48.808;8.820;2023-09-19T02:42:52;0.60;;;0.50;;
70967;SDS011;58629;48.808;8.820;2023-09-19T02:45:19;0.80;;;0.50;;
70967;SDS011;58629;48.808;8.820;2023-09-19T02:47:45;0.40;;;0.40;;
70967;SDS011;58629;48.808;8.820;2023-09-19T02:50:11;0.50;;;0.40;;
70967;SDS011;58629;48.808;8.820;2023-09-19T02:52:38;0.90;;;0.47;;
70967;SDS011;58629;48.808;8.820;2023-09-19T02:55:06;0.70;;;0.40;;
70967;SDS011;58629;48.808;8.820;2023-09-19T02:57:34;0.50;;;0.50;;
70967;SDS011;58629;48.808;8.820;2023-09-19T02:59:59;0.47;;;0.47;;
70967;SDS011;58629;48.808;8.820;2023-09-19T03:02:26;0.60;;;0.45;;
70967;SDS011;58629;48.808;8.820;2023-09-19T03:04:52;1.02;;;0.40;;
70967;SDS011;58629;48.808;8.820;2023-09-19T03:07:18;0.77;;;0.50;;
70967;SDS011;58629;48.808;8.820;2023-09-19T03:09:43;0.47;;;0.40;;
70967;SDS011;58629;48.808;8.820;2023-09-19T03:12:10;0.65;;;0.40;;
70967;SDS011;58629;48.808;8.820;2023-09-19T03:14:35;0.85;;;0.50;;
70967;SDS011;58629;48.808;8.820;2023-09-19T03:17:01;0.90;;;0.60;;
70967;SDS011;58629;48.808;8.820;2023-09-19T03:19:29;0.90;;;0.60;;
70967;SDS011;58629;48.808;8.820;2023-09-19T03:21:55;1.70;;;0.70;;
70967;SDS011;58629;48.808;8.820;2023-09-19T03:24:22;2.30;;;0.60;;
70967;SDS011;58629;48.808;8.820;2023-09-19T03:26:48;0.68;;;0.60;;
70967;SDS011;58629;48.808;8.820;2023-09-19T03:29:13;0.90;;;0.70;;
70967;SDS011;58629;48.808;8.820;2023-09-19T03:31:40;1.17;;;0.68;;
70967;SDS011;58629;48.808;8.820;2023-09-19T03:34:06;0.93;;;0.60;;
70967;SDS011;58629;48.808;8.820;2023-09-19T03:36:31;2.50;;;0.90;;
70967;SDS011;58629;48.808;8.820;2023-09-19T03:38:57;1.90;;;0.70;;
70967;SDS011;58629;48.808;8.820;2023-09-19T03:41:22;0.60;;;0.57;;
70967;SDS011;58629;48.808;8.820;2023-09-19T03:43:48;0.70;;;0.50;;
70967;SDS011;58629;48.808;8.820;2023-09-19T03:46:14;1.08;;;0.70;;
70967;SDS011;58629;48.808;8.820;2023-09-19T03:48:40;1.30;;;0.77;;
70967;SDS011;58629;48.808;8.820;2023-09-19T03:51:05;1.53;;;0.50;;
70967;SDS011;58629;48.808;8.820;2023-09-19T03:53:30;0.60;;;0.50;;
70967;SDS011;58629;48.808;8.820;2023-09-19T03:55:56;0.50;;;0.40;;
70967;SDS011;58629;48.808;8.820;2023-09-19T03:58:22;0.77;;;0.65;;
70967;SDS011;58629;48.808;8.820;2023-09-19T04:00:47;1.83;;;0.70;;
70967;SDS011;58629;48.808;8.820;2023-09-19T04:03:14;0.50;;;0.50;;
70967;SDS011;58629;48.808;8.820;2023-09-19T04:05:45;1.20;;;0.55;;
70967;SDS011;58629;48.808;8.820;2023-09-19T04:08:11;0.65;;;0.60;;
70967;SDS011;58629;48.808;8.820;2023-09-19T04:10:37;1.23;;;0.53;;
70967;SDS011;58629;48.808;8.820;2023-09-19T04:13:02;1.00;;;0.57;;
70967;SDS011;58629;48.808;8.820;2023-09-19T04:15:29;0.68;;;0.60;;
70967;SDS011;58629;48.808;8.820;2023-09-19T04:17:54;0.87;;;0.73;;
70967;SDS011;58629;48.808;8.820;2023-09-19T04:20:19;0.60;;;0.60;;
70967;SDS011;58629;48.808;8.820;2023-09-19T04:22:47;0.60;;;0.60;;
70967;SDS011;58629;48.808;8.820;2023-09-19T04:25:12;0.70;;;0.50;;
70967;SDS011;58629;48.808;8.820;2023-09-19T04:27:38;1.23;;;0.60;;
70967;SDS011;58629;48.808;8.820;2023-09-19T04:30:04;0.65;;;0.65;;
70967;SDS011;58629;48.808;8.820;2023-09-19T04:32:35;1.00;;;0.60;;
70967;SDS011;58629;48.808;8.820;2023-09-19T04:35:01;1.02;;;0.70;;
70967;SDS011;58629;48.808;8.820;2023-09-19T04:37:30;0.70;;;0.60;;
70967;SDS011;58629;48.808;8.820;2023-09-19T04:39:55;0.80;;;0.63;;
70967;SDS011;58629;48.808;8.820;2023-09-19T04:42:21;2.00;;;0.70;;
70967;SDS011;58629;48.808;8.820;2023-09-19T04:44:50;0.57;;;0.50;;
70967;SDS011;58629;48.808;8.820;2023-09-19T04:47:18;0.77;;;0.60;;
70967;SDS011;58629;48.808;8.820;2023-09-19T04:49:44;0.80;;;0.60;;
70967;SDS011;58629;48.808;8.820;2023-09-19T04:52:09;1.07;;;0.70;;
70967;SDS011;58629;48.808;8.820;2023-09-19T04:54:34;0.70;;;0.43;;
70967;SDS011;58629;48.808;8.820;2023-09-19T04:56:59;0.70;;;0.57;;
70967;SDS011;58629;48.808;8.820;2023-09-19T04:59:25;1.63;;;0.85;;
70967;SDS011;58629;48.808;8.820;2023-09-19T05:01:51;1.70;;;0.90;;
70967;SDS011;58629;48.808;8.820;2023-09-19T05:04:16;0.90;;;0.80;;
70967;SDS011;58629;48.808;8.820;2023-09-19T05:06:41;1.57;;;1.00;;
70967;SDS011;58629;48.808;8.820;2023-09-19T05:09:07;1.60;;;0.80;;
70967;SDS011;58629;48.808;8.820;2023-09-19T05:11:33;2.10;;;0.90;;
70967;SDS011;58629;48.808;8.820;2023-09-19T05:13:58;1.27;;;0.80;;
70967;SDS011;58629;48.808;8.820;2023-09-19T05:16:28;1.23;;;0.90;;
70967;SDS011;58629;48.808;8.820;2023-09-19T05:18:56;1.10;;;0.80;;
70967;SDS011;58629;48.808;8.820;2023-09-19T05:21:21;2.10;;;0.90;;
70967;SDS011;58629;48.808;8.820;2023-09-19T05:23:48;1.87;;;0.80;;
70967;SDS011;58629;48.808;8.820;2023-09-19T05:26:14;2.05;;;1.00;;
70967;SDS011;58629;48.808;8.820;2023-09-19T05:28:41;1.80;;;1.00;;
70967;SDS011;58629;48.808;8.820;2023-09-19T05:31:07;2.28;;;1.00;;
70967;SDS011;58629;48.808;8.820;2023-09-19T05:33:32;2.60;;;1.40;;
70967;SDS011;58629;48.808;8.820;2023-09-19T05:35:58;2.07;;;1.10;;
70967;SDS011;58629;48.808;8.820;2023-09-19T05:38:23;2.47;;;1.20;;
70967;SDS011;58629;48.808;8.820;2023-09-19T05:40:49;1.80;;;1.23;;
70967;SDS011;58629;48.808;8.820;2023-09-19T05:43:14;3.37;;;1.20;;
70967;SDS011;58629;48.808;8.820;2023-09-19T05:45:40;1.87;;;1.20;;
70967;SDS011;58629;48.808;8.820;2023-09-19T05:48:12;1.50;;;1.13;;
70967;SDS011;58629;48.808;8.820;2023-09-19T05:50:38;2.40;;;1.30;;
70967;SDS011;58629;48.808;8.820;2023-09-19T05:53:04;2.47;;;1.20;;
70967;SDS011;58629;48.808;8.820;2023-09-19T05:55:30;1.92;;;1.10;;
70967;SDS011;58629;48.808;8.820;2023-09-19T05:57:56;2.30;;;1.30;;
70967;SDS011;58629;48.808;8.820;2023-09-19T06:00:22;4.10;;;1.30;;
70967;SDS011;58629;48.808;8.820;2023-09-19T06:02:55;2.45;;;1.30;;
70967;SDS011;58629;48.808;8.820;2023-09-19T06:05:22;1.77;;;1.13;;
70967;SDS011;58629;48.808;8.820;2023-09-19T06:07:48;1.42;;;1.10;;
70967;SDS011;58629;48.808;8.820;2023-09-19T06:10:13;2.70;;;1.00;;
70967;SDS011;58629;48.808;8.820;2023-09-19T06:12:40;1.63;;;1.20;;
70967;SDS011;58629;48.808;8.820;2023-09-19T06:15:10;2.97;;;1.00;;
70967;SDS011;58629;48.808;8.820;2023-09-19T06:17:41;1.42;;;1.10;;
70967;SDS011;58629;48.808;8.820;2023-09-19T06:20:13;1.60;;;1.08;;
70967;SDS011;58629;48.808;8.820;2023-09-19T06:22:40;1.20;;;1.10;;
70967;SDS011;58629;48.808;8.820;2023-09-19T06:25:06;2.75;;;1.10;;
70967;SDS011;58629;48.808;8.820;2023-09-19T06:27:32;1.42;;;1.02;;
70967;SDS011;58629;48.808;8.820;2023-09-19T06:29:57;1.43;;;0.83;;
70967;SDS011;58629;48.808;8.820;2023-09-19T06:32:29;3.53;;;1.67;;
70967;SDS011;58629;48.808;8.820;2023-09-19T06:34:54;2.80;;;1.60;;
70967;SDS011;58629;48.808;8.820;2023-09-19T06:37:20;6.50;;;1.77;;
70967;SDS011;58629;48.808;8.820;2023-09-19T06:39:46;2.22;;;1.40;;
70967;SDS011;58629;48.808;8.820;2023-09-19T06:42:13;3.47;;;1.50;;
70967;SDS011;58629;48.808;8.820;2023-09-19T06:44:38;2.33;;;1.42;;
70967;SDS011;58629;48.808;8.820;2023-09-19T06:47:03;2.73;;;1.53;;
70967;SDS011;58629;48.808;8.820;2023-09-19T06:49:29;2.60;;;1.30;;
70967;SDS011;58629;48.808;8.820;2023-09-19T06:51:55;1.67;;;1.13;;
70967;SDS011;58629;48.808;8.820;2023-09-19T06:54:22;1.88;;;1.10;;
70967;SDS011;58629;48.808;8.820;2023-09-19T06:56:47;1.90;;;1.17;;
70967;SDS011;58629;48.808;8.820;2023-09-19T06:59:13;2.20;;;1.07;;
70967;SDS011;58629;48.808;8.820;2023-09-19T07:01:39;2.42;;;1.42;;
70967;SDS011;58629;48.808;8.820;2023-09-19T07:04:06;2.67;;;1.38;;
70967;SDS011;58629;48.808;8.820;2023-09-19T07:06:31;1.80;;;1.10;;
70967;SDS011;58629;48.808;8.820;2023-09-19T07:08:56;1.67;;;1.00;;
70967;SDS011;58629;48.808;8.820;2023-09-19T07:11:22;1.60;;;1.27;;
70967;SDS011;58629;48.808;8.820;2023-09-19T07:13:48;2.60;;;1.00;;
70967;SDS011;58629;48.808;8.820;2023-09-19T07:16:13;1.57;;;1.13;;
70967;SDS011;58629;48.808;8.820;2023-09-19T07:18:52;1.50;;;0.98;;
70967;SDS011;58629;48.808;8.820;2023-09-19T07:21:17;1.38;;;1.10;;
70967;SDS011;58629;48.808;8.820;2023-09-19T07:23:43;1.63;;;0.90;;
70967;SDS011;58629;48.808;8.820;2023-09-19T07:26:08;1.33;;;0.90;;
70967;SDS011;58629;48.808;8.820;2023-09-19T07:28:33;0.80;;;0.70;;
70967;SDS011;58629;48.808;8.820;2023-09-19T07:31:01;0.98;;;0.70;;
70967;SDS011;58629;48.808;8.820;2023-09-19T07:33:30;0.85;;;0.70;;
70967;SDS011;58629;48.808;8.820;2023-09-19T07:35:56;0.80;;;0.77;;
70967;SDS011;58629;48.808;8.820;2023-09-19T07:38:21;1.13;;;0.98;;
70967;SDS011;58629;48.808;8.820;2023-09-19T07:40:47;0.80;;;0.70;;
70967;SDS011;58629;48.808;8.820;2023-09-19T07:43:13;0.85;;;0.70;;
70967;SDS011;58629;48.808;8.820;2023-09-19T07:45:38;1.30;;;0.60;;
70967;SDS011;58629;48.808;8.820;2023-09-19T07:48:03;0.73;;;0.60;;
70967;SDS011;58629;48.808;8.820;2023-09-19T07:50:32;0.82;;;0.68;;
70967;SDS011;58629;48.808;8.820;2023-09-19T07:52:58;2.88;;;1.35;;
70967;SDS011;58629;48.808;8.820;2023-09-19T07:55:24;1.17;;;0.90;;
70967;SDS011;58629;48.808;8.820;2023-09-19T07:57:50;1.42;;;0.85;;
70967;SDS011;58629;48.808;8.820;2023-09-19T08:00:16;2.85;;;1.20;;
70967;SDS011;58629;48.808;8.820;2023-09-19T08:02:42;1.83;;;1.17;;
70967;SDS011;58629;48.808;8.820;2023-09-19T08:05:11;1.38;;;1.10;;
70967;SDS011;58629;48.808;8.820;2023-09-19T08:07:40;2.28;;;1.13;;
70967;SDS011;58629;48.808;8.820;2023-09-19T08:10:07;1.65;;;1.10;;
70967;SDS011;58629;48.808;8.820;2023-09-19T08:12:33;1.13;;;0.90;;
70967;SDS011;58629;48.808;8.820;2023-09-19T08:15:01;2.45;;;1.30;;
70967;SDS011;58629;48.808;8.820;2023-09-19T08:17:34;1.73;;;1.20;;
70967;SDS011;58629;48.808;8.820;2023-09-19T08:19:59;1.38;;;0.90;;
70967;SDS011;58629;48.808;8.820;2023-09-19T08:22:25;2.95;;;1.10;;
70967;SDS011;58629;48.808;8.820;2023-09-19T08:24:52;1.33;;;1.00;;
70967;SDS011;58629;48.808;8.820;2023-09-19T08:27:17;1.73;;;1.00;;
70967;SDS011;58629;48.808;8.820;2023-09-19T08:29:44;1.00;;;0.90;;
70967;SDS011;58629;48.808;8.820;2023-09-19T08:32:10;1.73;;;1.20;;
70967;SDS011;58629;48.808;8.820;2023-09-19T08:34:35;0.97;;;0.80;;
70967;SDS011;58629;48.808;8.820;2023-09-19T08:37:03;2.33;;;1.00;;
70967;SDS011;58629;48.808;8.820;2023-09-19T08:39:29;1.20;;;1.10;;
70967;SDS011;58629;48.808;8.820;2023-09-19T08:41:59;1.67;;;0.90;;
70967;SDS011;58629;48.808;8.820;2023-09-19T08:44:25;1.20;;;0.85;;
70967;SDS011;58629;48.808;8.820;2023-09-19T08:46:54;1.63;;;0.80;;
70967;SDS011;58629;48.808;8.820;2023-09-19T08:49:27;1.13;;;1.00;;
70967;SDS011;58629;48.808;8.820;2023-09-19T08:52:05;2.45;;;1.00;;
70967;SDS011;58629;48.808;8.820;2023-09-19T08:54:39;1.07;;;0.80;;
70967;SDS011;58629;48.808;8.820;2023-09-19T08:57:08;0.82;;;0.60;;
70967;SDS011;58629;48.808;8.820;2023-09-19T08:59:36;1.52;;;0.80;;
70967;SDS011;58629;48.808;8.820;2023-09-19T09:02:04;1.63;;;1.02;;
70967;SDS011;58629;48.808;8.820;2023-09-19T09:04:37;1.80;;;0.90;;
70967;SDS011;58629;48.808;8.820;2023-09-19T09:07:06;0.97;;;0.90;;
70967;SDS011;58629;48.808;8.820;2023-09-19T09:09:35;1.00;;;0.80;;
70967;SDS011;58629;48.808;8.820;2023-09-19T09:12:01;1.42;;;0.80;;
70967;SDS011;58629;48.808;8.820;2023-09-19T09:14:28;1.52;;;1.00;;
70967;SDS011;58629;48.808;8.820;2023-09-19T09:16:55;1.80;;;0.90;;
70967;SDS011;58629;48.808;8.820;2023-09-19T09:19:23;0.90;;;0.70;;
70967;SDS011;58629;48.808;8.820;2023-09-19T09:21:50;1.00;;;0.80;;
70967;SDS011;58629;48.808;8.820;2023-09-19T09:24:26;1.30;;;0.85;;
70967;SDS011;58629;48.808;8.820;2023-09-19T09:26:55;1.88;;;1.00;;
70967;SDS011;58629;48.808;8.820;2023-09-19T09:29:43;1.05;;;0.95;;
70967;SDS011;58629;48.808;8.820;2023-09-19T09:34:49;2.50;;;0.93;;
70967;SDS011;58629;48.808;8.820;2023-09-19T09:37:22;1.42;;;0.77;;
70967;SDS011;58629;48.808;8.820;2023-09-19T09:39:52;1.55;;;0.82;;
70967;SDS011;58629;48.808;8.820;2023-09-19T09:42:30;2.10;;;1.00;;
70967;SDS011;58629;48.808;8.820;2023-09-19T09:45:19;1.58;;;0.90;;
70967;SDS011;58629;48.808;8.820;2023-09-19T09:47:57;1.33;;;0.90;;
70967;SDS011;58629;48.808;8.820;2023-09-19T09:50:30;1.63;;;0.90;;
70967;SDS011;58629;48.808;8.820;2023-09-19T09:53:03;1.17;;;0.80;;
70967;SDS011;58629;48.808;8.820;2023-09-19T09:58:38;1.67;;;0.75;;
70967;SDS011;58629;48.808;8.820;2023-09-19T10:01:14;2.25;;;0.90;;
70967;SDS011;58629;48.808;8.820;2023-09-19T10:03:41;1.67;;;1.00;;
70967;SDS011;58629;48.808;8.820;2023-09-19T10:06:17;1.63;;;0.80;;
70967;SDS011;58629;48.808;8.820;2023-09-19T10:09:04;1.23;;;0.82;;
70967;SDS011;58629;48.808;8.820;2023-09-19T10:11:35;2.88;;;0.80;;
70967;SDS011;58629;48.808;8.820;2023-09-19T10:14:02;1.27;;;0.80;;
70967;SDS011;58629;48.808;8.820;2023-09-19T10:16:31;2.53;;;0.90;;
70967;SDS011;58629;48.808;8.820;2023-09-19T10:18:58;3.33;;;0.88;;
70967;SDS011;58629;48.808;8.820;2023-09-19T10:21:29;2.03;;;0.90;;
70967;SDS011;58629;48.808;8.820;2023-09-19T10:23:56;1.80;;;1.00;;
70967;SDS011;58629;48.808;8.820;2023-09-19T10:26:24;2.47;;;0.80;;
70967;SDS011;58629;48.808;8.820;2023-09-19T10:28:51;2.83;;;0.85;;
70967;SDS011;58629;48.808;8.820;2023-09-19T10:31:20;0.93;;;0.70;;
70967;SDS011;58629;48.808;8.820;2023-09-19T10:33:49;2.53;;;0.80;;
70967;SDS011;58629;48.808;8.820;2023-09-19T10:36:15;1.58;;;0.80;;
70967;SDS011;58629;48.808;8.820;2023-09-19T10:38:41;2.33;;;0.80;;
70967;SDS011;58629;48.808;8.820;2023-09-19T10:41:09;0.80;;;0.73;;
70967;SDS011;58629;48.808;8.820;2023-09-19T10:43:39;2.15;;;0.70;;
70967;SDS011;58629;48.808;8.820;2023-09-19T10:46:09;1.10;;;0.70;;
70967;SDS011;58629;48.808;8.820;2023-09-19T10:48:38;1.75;;;0.80;;
70967;SDS011;58629;48.808;8.820;2023-09-19T10:51:09;2.05;;;0.80;;
70967;SDS011;58629;48.808;8.820;2023-09-19T10:53:51;1.25;;;0.80;;
70967;SDS011;58629;48.808;8.820;2023-09-19T10:56:26;1.98;;;0.80;;
70967;SDS011;58629;48.808;8.820;2023-09-19T10:59:07;1.17;;;0.80;;
70967;SDS011;58629;48.808;8.820;2023-09-19T11:01:45;0.98;;;0.80;;
70967;SDS011;58629;48.808;8.820;2023-09-19T11:04:21;0.95;;;0.85;;
70967;SDS011;58629;48.808;8.820;2023-09-19T11:07:03;1.88;;;0.90;;
70967;SDS011;58629;48.808;8.820;2023-09-19T11:09:49;1.90;;;0.93;;
70967;SDS011;58629;48.808;8.820;2023-09-19T11:15:10;1.20;;;0.80;;
70967;SDS011;58629;48.808;8.820;2023-09-19T11:18:50;1.38;;;0.80;;
70967;SDS011;58629;48.808;8.820;2023-09-19T11:26:43;1.80;;;0.70;;
70967;SDS011;58629;48.808;8.820;2023-09-19T11:29:28;1.45;;;1.00;;
70967;SDS011;58629;48.808;8.820;2023-09-19T11:31:55;1.70;;;0.82;;
70967;SDS011;58629;48.808;8.820;2023-09-19T11:37:01;2.08;;;0.82;;
70967;SDS011;58629;48.808;8.820;2023-09-19T11:40:05;1.88;;;0.82;;
70967;SDS011;58629;48.808;8.820;2023-09-19T11:48:23;2.53;;;0.98;;
70967;SDS011;58629;48.808;8.820;2023-09-19T11:50:52;1.10;;;0.75;;
70967;SDS011;58629;48.808;8.820;2023-09-19T11:53:18;1.65;;;0.80;;
70967;SDS011;58629;48.808;8.820;2023-09-19T11:55:45;2.20;;;0.90;;
70967;SDS011;58629;48.808;8.820;2023-09-19T11:58:11;2.03;;;0.90;;
70967;SDS011;58629;48.808;8.820;2023-09-19T12:00:39;1.52;;;0.93;;
70967;SDS011;58629;48.808;8.820;2023-09-19T12:03:09;0.85;;;0.68;;
70967;SDS011;58629;48.808;8.820;2023-09-19T12:05:43;1.10;;;0.73;;
70967;SDS011;58629;48.808;8.820;2023-09-19T12:08:08;1.20;;;1.00;;
70967;SDS011;58629;48.808;8.820;2023-09-19T12:10:47;0.80;;;0.70;;
70967;SDS011;58629;48.808;8.820;2023-09-19T12:13:16;1.90;;;0.85;;
70967;SDS011;58629;48.808;8.820;2023-09-19T12:15:43;0.95;;;0.70;;
70967;SDS011;58629;48.808;8.820;2023-09-19T12:18:10;1.45;;;0.75;;
70967;SDS011;58629;48.808;8.820;2023-09-19T12:20:50;1.20;;;0.80;;
70967;SDS011;58629;48.808;8.820;2023-09-19T12:23:17;1.73;;;0.70;;
70967;SDS011;58629;48.808;8.820;2023-09-19T12:25:43;1.15;;;0.82;;
70967;SDS011;58629;48.808;8.820;2023-09-19T12:28:12;1.33;;;0.98;;
70967;SDS011;58629;48.808;8.820;2023-09-19T12:30:38;2.58;;;0.90;;
70967;SDS011;58629;48.808;8.820;2023-09-19T12:33:16;1.30;;;0.80;;
70967;SDS011;58629;48.808;8.820;2023-09-19T12:35:44;2.30;;;0.90;;
70967;SDS011;58629;48.808;8.820;2023-09-19T12:38:10;1.20;;;1.10;;
70967;SDS011;58629;48.808;8.820;2023-09-19T12:40:37;1.30;;;0.80;;
70967;SDS011;58629;48.808;8.820;2023-09-19T12:43:03;1.05;;;0.90;;
70967;SDS011;58629;48.808;8.820;2023-09-19T12:45:30;1.40;;;0.90;;
70967;SDS011;58629;48.808;8.820;2023-09-19T12:53:37;1.45;;;0.90;;
70967;SDS011;58629;48.808;8.820;2023-09-19T12:56:14;2.38;;;1.02;;
70967;SDS011;58629;48.808;8.820;2023-09-19T13:01:26;2.30;;;1.17;;
70967;SDS011;58629;48.808;8.820;2023-09-19T13:04:10;1.77;;;0.90;;
70967;SDS011;58629;48.808;8.820;2023-09-19T13:06:37;2.58;;;0.90;;
70967;SDS011;58629;48.808;8.820;2023-09-19T13:09:09;0.93;;;0.80;;
70967;SDS011;58629;48.808;8.820;2023-09-19T13:11:36;0.80;;;0.70;;
70967;SDS011;58629;48.808;8.820;2023-09-19T13:19:41;2.30;;;0.90;;
70967;SDS011;58629;48.808;8.820;2023-09-19T13:25:08;1.67;;;0.73;;
70967;SDS011;58629;48.808;8.820;2023-09-19T13:27:40;1.48;;;1.00;;
70967;SDS011;58629;48.808;8.820;2023-09-19T13:30:09;1.58;;;0.90;;
70967;SDS011;58629;48.808;8.820;2023-09-19T13:32:36;1.15;;;0.70;;
70967;SDS011;58629;48.808;8.820;2023-09-19T13:35:02;0.95;;;0.85;;
70967;SDS011;58629;48.808;8.820;2023-09-19T13:37:30;1.98;;;0.75;;
70967;SDS011;58629;48.808;8.820;2023-09-19T13:39:55;1.83;;;0.85;;
70967;SDS011;58629;48.808;8.820;2023-09-19T13:42:22;1.15;;;0.82;;
70967;SDS011;58629;48.808;8.820;2023-09-19T13:44:50;4.22;;;1.00;;
70967;SDS011;58629;48.808;8.820;2023-09-19T13:47:15;1.35;;;0.80;;
70967;SDS011;58629;48.808;8.820;2023-09-19T13:49:41;1.02;;;0.82;;
70967;SDS011;58629;48.808;8.820;2023-09-19T13:52:08;1.00;;;0.90;;
70967;SDS011;58629;48.808;8.820;2023-09-19T13:54:34;1.23;;;0.85;;
70967;SDS011;58629;48.808;8.820;2023-09-19T13:57:00;1.23;;;0.80;;
70967;SDS011;58629;48.808;8.820;2023-09-19T13:59:25;1.67;;;0.80;;
70967;SDS011;58629;48.808;8.820;2023-09-19T14:01:53;1.30;;;0.90;;
70967;SDS011;58629;48.808;8.820;2023-09-19T14:04:19;1.08;;;0.77;;
70967;SDS011;58629;48.808;8.820;2023-09-19T14:06:47;1.63;;;0.80;;
70967;SDS011;58629;48.808;8.820;2023-09-19T14:09:12;1.45;;;0.85;;
70967;SDS011;58629;48.808;8.820;2023-09-19T14:11:38;1.03;;;0.90;;
70967;SDS011;58629;48.808;8.820;2023-09-19T14:14:04;1.83;;;0.95;;
70967;SDS011;58629;48.808;8.820;2023-09-19T14:16:29;1.00;;;0.70;;
70967;SDS011;58629;48.808;8.820;2023-09-19T14:18:56;1.25;;;0.90;;
70967;SDS011;58629;48.808;8.820;2023-09-19T14:21:21;2.03;;;0.90;;
70967;SDS011;58629;48.808;8.820;2023-09-19T14:23:48;1.23;;;0.70;;
70967;SDS011;58629;48.808;8.820;2023-09-19T14:26:14;1.10;;;1.00;;
70967;SDS011;58629;48.808;8.820;2023-09-19T14:28:41;0.93;;;0.75;;
70967;SDS011;58629;48.808;8.820;2023-09-19T14:31:10;1.57;;;0.80;;
70967;SDS011;58629;48.808;8.820;2023-09-19T14:33:36;0.60;;;0.60;;
70967;SDS011;58629;48.808;8.820;2023-09-19T14:36:03;2.45;;;0.85;;
70967;SDS011;58629;48.808;8.820;2023-09-19T14:38:34;0.82;;;0.65;;
70967;SDS011;58629;48.808;8.820;2023-09-19T14:41:03;1.00;;;0.73;;
70967;SDS011;58629;48.808;8.820;2023-09-19T14:43:32;1.05;;;0.80;;
70967;SDS011;58629;48.808;8.820;2023-09-19T14:46:04;2.22;;;0.85;;
70967;SDS011;58629;48.808;8.820;2023-09-19T14:48:32;1.15;;;0.70;;
70967;SDS011;58629;48.808;8.820;2023-09-19T14:51:04;0.83;;;0.70;;
70967;SDS011;58629;48.808;8.820;2023-09-19T14:53:31;1.38;;;0.77;;
70967;SDS011;58629;48.808;8.820;2023-09-19T14:55:56;0.80;;;0.70;;
70967;SDS011;58629;48.808;8.820;2023-09-19T14:58:24;0.70;;;0.60;;
70967;SDS011;58629;48.808;8.820;2023-09-19T15:00:51;4.20;;;0.70;;
70967;SDS011;58629;48.808;8.820;2023-09-19T15:03:17;0.70;;;0.50;;
70967;SDS011;58629;48.808;8.820;2023-09-19T15:05:43;0.70;;;0.60;;
70967;SDS011;58629;48.808;8.820;2023-09-19T15:08:08;0.70;;;0.68;;
70967;SDS011;58629;48.808;8.820;2023-09-19T15:10:33;1.13;;;0.70;;
70967;SDS011;58629;48.808;8.820;2023-09-19T15:12:59;1.08;;;0.63;;
70967;SDS011;58629;48.808;8.820;2023-09-19T15:15:25;0.77;;;0.60;;
70967;SDS011;58629;48.808;8.820;2023-09-19T15:17:50;0.60;;;0.60;;
70967;SDS011;58629;48.808;8.820;2023-09-19T15:20:16;1.00;;;0.60;;
70967;SDS011;58629;48.808;8.820;2023-09-19T15:22:42;0.73;;;0.50;;
70967;SDS011;58629;48.808;8.820;2023-09-19T15:25:08;1.47;;;0.50;;
70967;SDS011;58629;48.808;8.820;2023-09-19T15:27:33;0.70;;;0.60;;
70967;SDS011;58629;48.808;8.820;2023-09-19T15:29:59;0.45;;;0.45;;
70967;SDS011;58629;48.808;8.820;2023-09-19T15:32:25;0.50;;;0.50;;
70967;SDS011;58629;48.808;8.820;2023-09-19T15:34:51;1.13;;;0.70;;
70967;SDS011;58629;48.808;8.820;2023-09-19T15:37:16;1.20;;;0.70;;
70967;SDS011;58629;48.808;8.820;2023-09-19T15:39:41;0.60;;;0.57;;
70967;SDS011;58629;48.808;8.820;2023-09-19T15:42:08;0.63;;;0.52;;
70967;SDS011;58629;48.808;8.820;2023-09-19T15:44:33;0.87;;;0.50;;